Back to Top

Language: 

My Weather Underground Personal Weather Station Historical Data with Graphs...

Delerius Weather Station Historical Data
Daily Summary for October 8, 2017 Units:  English    Metric   Both
« Previous Day
Next Day »
Daily Weekly Monthly Yearly Custom
  High: Low: Average:
Temperature: 64.0 °F 48.6 °F 54.5 °F
Dew Point: 52.7 °F 46.6 °F 49.8 °F
Humidity: 95 % 63 % 85 %
Wind Speed: 10.0 mph 0.0 mph 5.2 mph
Wind Gust: 18.0 mph - -
Wind:- - WNW
Pressure: 30.13 in 30.00 in -
Precipitation: 0.00 in    
Historical Graphs
 
 
Tabular Data for October 8, 2017
Time Temperature Dew Point Pressure Wind Wind Speed Wind Gust Humidity Rainfall Rate (Hourly) solar Conditions
00:00 52.0 °F 49.4 °F 30.00 in WNW 7.0 mph 13.0 mph 91 % 0.00 in 0 W/m2
00:05 52.0 °F 49.4 °F 30.00 in West 6.0 mph 12.0 mph 91 % 0.00 in 0 W/m2
00:10 51.8 °F 49.3 °F 30.00 in West 5.0 mph 10.0 mph 91 % 0.00 in 0 W/m2
00:15 51.6 °F 49.1 °F 30.00 in West 6.0 mph 10.0 mph 91 % 0.00 in 0 W/m2
00:20 51.6 °F 49.1 °F 30.00 in WNW 7.0 mph 12.0 mph 91 % 0.00 in 0 W/m2
00:25 51.6 °F 49.1 °F 30.00 in WNW 7.0 mph 12.0 mph 91 % 0.00 in 0 W/m2
00:30 51.4 °F 48.9 °F 30.00 in WNW 7.0 mph 10.0 mph 91 % 0.00 in 0 W/m2
00:35 51.4 °F 48.9 °F 30.00 in WNW 6.0 mph 10.0 mph 91 % 0.00 in 0 W/m2
00:40 51.3 °F 48.7 °F 30.00 in West 6.0 mph 11.0 mph 91 % 0.00 in 0 W/m2
00:46 51.3 °F 48.7 °F 30.00 in West 7.0 mph 11.0 mph 91 % 0.00 in 0 W/m2
00:51 51.1 °F 48.5 °F 30.00 in WNW 7.0 mph 12.0 mph 91 % 0.00 in 0 W/m2
00:56 51.1 °F 48.8 °F 30.00 in WNW 8.0 mph 12.0 mph 92 % 0.00 in 0 W/m2
01:01 51.1 °F 48.8 °F 30.00 in WNW 8.0 mph 12.0 mph 92 % 0.00 in 0 W/m2
01:06 51.3 °F 49.0 °F 30.00 in WNW 8.0 mph 14.0 mph 92 % 0.00 in 0 W/m2
01:11 51.3 °F 49.0 °F 30.01 in WNW 8.0 mph 14.0 mph 92 % 0.00 in 0 W/m2
01:21 51.3 °F 49.0 °F 30.01 in WNW 8.0 mph 12.0 mph 92 % 0.00 in 0 W/m2
01:26 51.3 °F 49.0 °F 30.00 in WNW 8.0 mph 12.0 mph 92 % 0.00 in 0 W/m2
01:31 51.4 °F 49.2 °F 30.00 in WNW 8.0 mph 13.0 mph 92 % 0.00 in 0 W/m2
01:36 51.4 °F 49.2 °F 30.01 in WNW 7.0 mph 13.0 mph 92 % 0.00 in 0 W/m2
01:41 51.4 °F 49.2 °F 30.01 in WNW 7.0 mph 11.0 mph 92 % 0.00 in 0 W/m2
01:46 51.4 °F 49.2 °F 30.01 in WNW 7.0 mph 12.0 mph 92 % 0.00 in 0 W/m2
01:51 51.4 °F 49.2 °F 30.01 in WNW 8.0 mph 12.0 mph 92 % 0.00 in 0 W/m2
01:56 51.4 °F 49.2 °F 30.01 in WNW 8.0 mph 13.0 mph 92 % 0.00 in 0 W/m2
02:01 51.4 °F 49.2 °F 30.01 in WNW 9.0 mph 13.0 mph 92 % 0.00 in 0 W/m2
02:06 51.6 °F 49.4 °F 30.01 in WNW 9.0 mph 13.0 mph 92 % 0.00 in 0 W/m2
02:11 51.6 °F 49.4 °F 30.01 in WNW 9.0 mph 13.0 mph 92 % 0.00 in 0 W/m2
02:16 51.6 °F 49.4 °F 30.01 in WNW 9.0 mph 15.0 mph 92 % 0.00 in 0 W/m2
02:21 51.6 °F 49.4 °F 30.01 in WNW 10.0 mph 15.0 mph 92 % 0.00 in 0 W/m2
02:31 52.0 °F 49.4 °F 30.01 in WNW 10.0 mph 18.0 mph 91 % 0.00 in 0 W/m2
02:36 52.0 °F 49.4 °F 30.01 in WNW 10.0 mph 18.0 mph 91 % 0.00 in 0 W/m2
02:41 51.8 °F 49.3 °F 30.01 in WNW 9.0 mph 16.0 mph 91 % 0.00 in 0 W/m2
02:46 51.6 °F 49.1 °F 30.01 in WNW 8.0 mph 14.0 mph 91 % 0.00 in 0 W/m2
02:56 51.6 °F 49.1 °F 30.01 in WNW 8.0 mph 13.0 mph 91 % 0.00 in 0 W/m2
03:01 51.4 °F 48.9 °F 30.01 in WNW 8.0 mph 12.0 mph 91 % 0.00 in 0 W/m2
03:06 51.4 °F 48.9 °F 30.01 in WNW 8.0 mph 13.0 mph 91 % 0.00 in 0 W/m2
03:11 51.3 °F 48.7 °F 30.01 in West 7.0 mph 13.0 mph 91 % 0.00 in 0 W/m2
03:16 51.3 °F 48.7 °F 30.02 in West 6.0 mph 11.0 mph 91 % 0.00 in 0 W/m2
03:21 51.1 °F 48.5 °F 30.02 in West 6.0 mph 11.0 mph 91 % 0.00 in 0 W/m2
03:26 50.9 °F 48.4 °F 30.01 in West 6.0 mph 10.0 mph 91 % 0.00 in 0 W/m2
03:31 50.7 °F 48.5 °F 30.01 in West 6.0 mph 11.0 mph 92 % 0.00 in 0 W/m2
03:36 50.7 °F 48.2 °F 30.01 in WNW 6.0 mph 11.0 mph 91 % 0.00 in 0 W/m2
03:41 50.7 °F 48.5 °F 30.02 in WNW 6.0 mph 10.0 mph 92 % 0.00 in 0 W/m2
03:46 50.7 °F 48.5 °F 30.02 in WNW 6.0 mph 11.0 mph 92 % 0.00 in 0 W/m2
03:51 50.5 °F 48.3 °F 30.02 in WNW 7.0 mph 11.0 mph 92 % 0.00 in 0 W/m2
03:56 50.5 °F 48.3 °F 30.02 in WNW 7.0 mph 11.0 mph 92 % 0.00 in 0 W/m2
04:01 50.5 °F 48.3 °F 30.02 in WNW 7.0 mph 12.0 mph 92 % 0.00 in 0 W/m2
04:06 50.7 °F 48.5 °F 30.02 in WNW 8.0 mph 13.0 mph 92 % 0.00 in 0 W/m2
04:11 50.7 °F 48.5 °F 30.02 in WNW 8.0 mph 13.0 mph 92 % 0.00 in 0 W/m2
04:16 50.7 °F 48.5 °F 30.02 in WNW 8.0 mph 14.0 mph 92 % 0.00 in 0 W/m2
04:21 50.7 °F 48.5 °F 30.02 in WNW 8.0 mph 13.0 mph 92 % 0.00 in 0 W/m2
04:24 50.7 °F 48.5 °F 30.02 in WNW 8.0 mph 13.0 mph 92 % 0.00 in 0 W/m2
04:29 50.7 °F 48.5 °F 30.02 in WNW 8.0 mph 15.0 mph 92 % 0.00 in 0 W/m2
04:34 50.7 °F 48.2 °F 30.02 in WNW 9.0 mph 15.0 mph 91 % 0.00 in 0 W/m2
04:39 50.7 °F 48.2 °F 30.03 in WNW 8.0 mph 15.0 mph 91 % 0.00 in 0 W/m2
04:44 50.7 °F 48.2 °F 30.03 in WNW 8.0 mph 15.0 mph 91 % 0.00 in 0 W/m2
04:49 50.7 °F 48.5 °F 30.03 in WNW 7.0 mph 12.0 mph 92 % 0.00 in 0 W/m2
04:54 50.7 °F 48.5 °F 30.03 in WNW 8.0 mph 12.0 mph 92 % 0.00 in 0 W/m2
04:59 50.9 °F 48.7 °F 30.03 in WNW 8.0 mph 14.0 mph 92 % 0.00 in 0 W/m2
05:04 51.1 °F 48.8 °F 30.03 in WNW 7.0 mph 14.0 mph 92 % 0.00 in 0 W/m2
05:09 51.3 °F 49.0 °F 30.03 in WNW 7.0 mph 15.0 mph 92 % 0.00 in 0 W/m2
05:14 51.3 °F 49.0 °F 30.03 in WNW 8.0 mph 15.0 mph 92 % 0.00 in 0 W/m2
05:29 51.6 °F 49.1 °F 30.04 in WNW 8.0 mph 13.0 mph 91 % 0.00 in 0 W/m2
05:34 51.6 °F 49.1 °F 30.04 in WNW 8.0 mph 14.0 mph 91 % 0.00 in 0 W/m2
05:39 51.8 °F 49.3 °F 30.04 in WNW 8.0 mph 14.0 mph 91 % 0.00 in 0 W/m2
05:44 51.8 °F 49.3 °F 30.04 in WNW 8.0 mph 14.0 mph 91 % 0.00 in 0 W/m2
05:49 51.8 °F 49.3 °F 30.04 in WNW 7.0 mph 14.0 mph 91 % 0.00 in 0 W/m2
05:54 51.8 °F 49.3 °F 30.04 in WNW 6.0 mph 10.0 mph 91 % 0.00 in 0 W/m2
05:59 51.6 °F 49.1 °F 30.04 in WNW 6.0 mph 9.0 mph 91 % 0.00 in 0 W/m2
06:04 51.6 °F 49.1 °F 30.05 in WNW 6.0 mph 10.0 mph 91 % 0.00 in 0 W/m2
06:09 51.6 °F 49.1 °F 30.05 in WNW 6.0 mph 10.0 mph 91 % 0.00 in 0 W/m2
06:14 51.4 °F 48.9 °F 30.05 in WNW 6.0 mph 10.0 mph 91 % 0.00 in 0 W/m2
06:19 51.4 °F 48.9 °F 30.05 in WNW 6.0 mph 12.0 mph 91 % 0.00 in 0 W/m2
06:24 51.4 °F 48.9 °F 30.05 in WNW 7.0 mph 12.0 mph 91 % 0.00 in 0 W/m2
06:29 51.4 °F 48.9 °F 30.05 in West 6.0 mph 11.0 mph 91 % 0.00 in 0 W/m2
06:34 51.3 °F 48.7 °F 30.05 in WNW 7.0 mph 10.0 mph 91 % 0.00 in 0 W/m2
06:39 51.3 °F 48.7 °F 30.05 in WNW 7.0 mph 10.0 mph 91 % 0.00 in 0 W/m2
06:44 51.3 °F 48.7 °F 30.05 in WNW 7.0 mph 10.0 mph 91 % 0.00 in 0 W/m2
06:49 51.3 °F 48.7 °F 30.05 in WNW 7.0 mph 10.0 mph 91 % 0.00 in 0 W/m2
06:54 51.3 °F 48.7 °F 30.05 in WNW 7.0 mph 10.0 mph 91 % 0.00 in 0 W/m2
06:59 51.3 °F 48.7 °F 30.05 in WNW 6.0 mph 10.0 mph 91 % 0.00 in 0 W/m2
07:06 51.3 °F 48.7 °F 30.06 in WNW 6.0 mph 9.0 mph 91 % 0.00 in 0 W/m2
07:08 51.3 °F 48.7 °F 30.06 in WNW 6.0 mph 9.0 mph 91 % 0.00 in 0 W/m2
07:13 51.3 °F 48.7 °F 30.06 in WNW 6.0 mph 10.0 mph 91 % 0.00 in 0 W/m2
07:18 51.3 °F 48.7 °F 30.06 in WNW 7.0 mph 11.0 mph 91 % 0.00 in 0 W/m2
07:23 51.4 °F 48.9 °F 30.06 in WNW 7.0 mph 11.0 mph 91 % 0.00 in 5 W/m2
07:28 51.4 °F 48.9 °F 30.06 in WNW 7.0 mph 11.0 mph 91 % 0.00 in 7 W/m2
07:33 51.6 °F 49.1 °F 30.06 in WNW 7.0 mph 11.0 mph 91 % 0.00 in 9 W/m2
07:38 51.6 °F 48.8 °F 30.06 in WNW 7.0 mph 11.0 mph 90 % 0.00 in 11 W/m2
07:43 51.8 °F 49.0 °F 30.06 in WNW 7.0 mph 10.0 mph 90 % 0.00 in 11 W/m2
07:48 51.8 °F 49.0 °F 30.06 in WNW 6.0 mph 10.0 mph 90 % 0.00 in 12 W/m2
07:53 52.0 °F 49.1 °F 30.06 in WNW 6.0 mph 10.0 mph 90 % 0.00 in 12 W/m2
07:58 52.0 °F 49.1 °F 30.06 in WNW 6.0 mph 10.0 mph 90 % 0.00 in 14 W/m2
08:03 52.2 °F 49.3 °F 30.06 in WNW 6.0 mph 9.0 mph 90 % 0.00 in 18 W/m2
08:08 52.2 °F 49.3 °F 30.06 in WNW 5.0 mph 9.0 mph 90 % 0.00 in 19 W/m2
08:13 52.2 °F 49.3 °F 30.06 in WNW 5.0 mph 8.0 mph 90 % 0.00 in 21 W/m2
08:18 52.2 °F 49.3 °F 30.06 in West 5.0 mph 8.0 mph 90 % 0.00 in 18 W/m2
08:23 52.2 °F 49.3 °F 30.06 in WNW 6.0 mph 8.0 mph 90 % 0.00 in 23 W/m2
08:28 52.3 °F 49.5 °F 30.07 in WNW 6.0 mph 8.0 mph 90 % 0.00 in 28 W/m2
08:33 52.3 °F 49.5 °F 30.06 in WNW 5.0 mph 8.0 mph 90 % 0.00 in 40 W/m2
08:38 52.3 °F 49.5 °F 30.06 in WNW 5.0 mph 8.0 mph 90 % 0.00 in 49 W/m2
08:43 52.5 °F 50.0 °F 30.07 in WNW 5.0 mph 8.0 mph 91 % 0.00 in 46 W/m2
08:48 52.5 °F 50.0 °F 30.07 in WNW 5.0 mph 8.0 mph 91 % 0.00 in 51 W/m2
08:53 52.7 °F 49.8 °F 30.07 in WNW 5.0 mph 8.0 mph 90 % 0.00 in 63 W/m2
08:58 52.9 °F 50.0 °F 30.07 in WNW 5.0 mph 8.0 mph 90 % 0.00 in 65 W/m2
09:03 53.1 °F 50.2 °F 30.07 in WNW 5.0 mph 8.0 mph 90 % 0.00 in 67 W/m2
09:08 53.2 °F 50.4 °F 30.07 in WNW 5.0 mph 8.0 mph 90 % 0.00 in 62 W/m2
09:13 53.2 °F 50.4 °F 30.08 in WNW 5.0 mph 9.0 mph 90 % 0.00 in 65 W/m2
09:18 53.4 °F 50.6 °F 30.08 in WNW 5.0 mph 9.0 mph 90 % 0.00 in 72 W/m2
09:23 53.6 °F 50.7 °F 30.08 in WNW 4.0 mph 7.0 mph 90 % 0.00 in 84 W/m2
09:28 53.8 °F 50.9 °F 30.08 in WNW 4.0 mph 7.0 mph 90 % 0.00 in 97 W/m2
09:33 53.8 °F 50.9 °F 30.08 in West 4.0 mph 7.0 mph 90 % 0.00 in 102 W/m2
09:38 54.0 °F 51.1 °F 30.08 in West 3.0 mph 6.0 mph 90 % 0.00 in 109 W/m2
09:43 54.1 °F 51.0 °F 30.08 in West 2.0 mph 6.0 mph 89 % 0.00 in 111 W/m2
09:48 54.3 °F 51.4 °F 30.08 in West 1.0 mph 5.0 mph 90 % 0.00 in 116 W/m2
09:53 54.7 °F 51.5 °F 30.08 in West 3.0 mph 7.0 mph 89 % 0.00 in 111 W/m2
09:58 54.9 °F 51.7 °F 30.09 in West 5.0 mph 10.0 mph 89 % 0.00 in 123 W/m2
10:03 55.0 °F 51.5 °F 30.09 in WNW 7.0 mph 15.0 mph 88 % 0.00 in 158 W/m2
10:08 55.0 °F 51.5 °F 30.09 in WNW 9.0 mph 16.0 mph 88 % 0.00 in 176 W/m2
10:13 55.2 °F 51.4 °F 30.09 in WNW 9.0 mph 16.0 mph 87 % 0.00 in 269 W/m2
10:18 55.4 °F 51.3 °F 30.09 in WNW 9.0 mph 14.0 mph 86 % 0.00 in 225 W/m2
10:23 55.8 °F 51.6 °F 30.10 in WNW 7.0 mph 14.0 mph 86 % 0.00 in 185 W/m2
10:28 55.9 °F 51.8 °F 30.10 in WNW 6.0 mph 13.0 mph 86 % 0.00 in 188 W/m2
10:33 56.1 °F 51.7 °F 30.10 in WNW 7.0 mph 13.0 mph 85 % 0.00 in 214 W/m2
10:38 56.5 °F 52.0 °F 30.10 in NW 7.0 mph 11.0 mph 85 % 0.00 in 227 W/m2
10:43 56.7 °F 51.9 °F 30.10 in NW 7.0 mph 13.0 mph 84 % 0.00 in 211 W/m2
10:48 56.8 °F 52.1 °F 30.10 in WNW 8.0 mph 13.0 mph 84 % 0.00 in 278 W/m2
10:53 57.0 °F 51.9 °F 30.10 in WNW 8.0 mph 13.0 mph 83 % 0.00 in 223 W/m2
10:58 57.2 °F 51.8 °F 30.10 in NW 7.0 mph 12.0 mph 82 % 0.00 in 237 W/m2
11:03 57.4 °F 51.9 °F 30.10 in NW 7.0 mph 13.0 mph 82 % 0.00 in 236 W/m2
11:08 57.6 °F 51.8 °F 30.10 in NW 7.0 mph 13.0 mph 81 % 0.00 in 276 W/m2
11:13 57.7 °F 51.9 °F 30.10 in WNW 7.0 mph 12.0 mph 81 % 0.00 in 227 W/m2
11:18 57.7 °F 51.6 °F 30.10 in WNW 8.0 mph 15.0 mph 80 % 0.00 in 213 W/m2
11:23 57.7 °F 51.6 °F 30.10 in WNW 9.0 mph 15.0 mph 80 % 0.00 in 232 W/m2
11:28 57.9 °F 51.8 °F 30.11 in WNW 8.0 mph 13.0 mph 80 % 0.00 in 271 W/m2
11:33 57.9 °F 51.8 °F 30.10 in WNW 8.0 mph 13.0 mph 80 % 0.00 in 265 W/m2
11:38 57.9 °F 51.8 °F 30.10 in WNW 8.0 mph 13.0 mph 80 % 0.00 in 255 W/m2
11:43 58.3 °F 52.1 °F 30.11 in WNW 8.0 mph 11.0 mph 80 % 0.00 in 274 W/m2
11:48 58.5 °F 52.3 °F 30.11 in WNW 7.0 mph 11.0 mph 80 % 0.00 in 258 W/m2
11:53 58.5 °F 52.0 °F 30.11 in WNW 6.0 mph 11.0 mph 79 % 0.00 in 246 W/m2
11:58 58.6 °F 52.1 °F 30.11 in WNW 6.0 mph 11.0 mph 79 % 0.00 in 227 W/m2
12:03 58.8 °F 52.3 °F 30.11 in WNW 6.0 mph 11.0 mph 79 % 0.00 in 213 W/m2
12:08 58.8 °F 52.0 °F 30.11 in WNW 7.0 mph 13.0 mph 78 % 0.00 in 202 W/m2
12:11 58.8 °F 52.0 °F 30.11 in WNW 7.0 mph 13.0 mph 78 % 0.00 in 216 W/m2
12:16 58.8 °F 52.0 °F 30.11 in WNW 7.0 mph 13.0 mph 78 % 0.00 in 186 W/m2
12:21 58.8 °F 52.0 °F 30.11 in NW 6.0 mph 9.0 mph 78 % 0.00 in 200 W/m2
12:26 58.8 °F 52.0 °F 30.11 in NW 5.0 mph 10.0 mph 78 % 0.00 in 202 W/m2
12:31 59.2 °F 52.3 °F 30.11 in NW 6.0 mph 10.0 mph 78 % 0.00 in 211 W/m2
12:36 59.4 °F 52.1 °F 30.11 in NW 5.0 mph 10.0 mph 77 % 0.00 in 225 W/m2
12:41 59.5 °F 52.7 °F 30.11 in WNW 5.0 mph 9.0 mph 78 % 0.00 in 218 W/m2
12:46 59.7 °F 52.5 °F 30.11 in WNW 5.0 mph 9.0 mph 77 % 0.00 in 236 W/m2
12:51 59.7 °F 52.1 °F 30.11 in WNW 6.0 mph 13.0 mph 76 % 0.00 in 346 W/m2
12:56 60.1 °F 52.5 °F 30.11 in NW 6.0 mph 13.0 mph 76 % 0.00 in 200 W/m2
13:01 60.1 °F 51.8 °F 30.11 in NW 6.0 mph 13.0 mph 74 % 0.00 in 148 W/m2
13:06 59.9 °F 51.6 °F 30.11 in NW 5.0 mph 10.0 mph 74 % 0.00 in 134 W/m2
13:11 59.7 °F 51.0 °F 30.11 in WNW 5.0 mph 11.0 mph 73 % 0.00 in 123 W/m2
13:16 59.5 °F 51.2 °F 30.11 in WNW 6.0 mph 11.0 mph 74 % 0.00 in 135 W/m2
13:21 59.4 °F 51.4 °F 30.10 in WNW 6.0 mph 11.0 mph 75 % 0.00 in 144 W/m2
13:26 59.4 °F 51.4 °F 30.11 in WNW 5.0 mph 9.0 mph 75 % 0.00 in 153 W/m2
13:31 59.4 °F 51.4 °F 30.11 in WNW 6.0 mph 10.0 mph 75 % 0.00 in 169 W/m2
13:36 59.5 °F 52.0 °F 30.11 in WNW 7.0 mph 11.0 mph 76 % 0.00 in 649 W/m2
13:41 60.3 °F 52.3 °F 30.10 in WNW 7.0 mph 12.0 mph 75 % 0.00 in 710 W/m2
13:46 61.3 °F 52.2 °F 30.10 in West 8.0 mph 14.0 mph 72 % 0.00 in 707 W/m2
13:51 61.9 °F 52.4 °F 30.10 in West 8.0 mph 14.0 mph 71 % 0.00 in 130 W/m2
13:56 61.7 °F 51.4 °F 30.11 in WNW 8.0 mph 12.0 mph 69 % 0.00 in 63 W/m2
14:01 61.3 °F 51.1 °F 30.11 in NW 8.0 mph 12.0 mph 69 % 0.00 in 62 W/m2
14:07 60.8 °F 50.6 °F 30.11 in NW 7.0 mph 12.0 mph 69 % 0.00 in 69 W/m2
14:12 60.4 °F 50.6 °F 30.11 in NW 6.0 mph 12.0 mph 70 % 0.00 in 72 W/m2
14:17 60.1 °F 50.6 °F 30.11 in NW 5.0 mph 10.0 mph 71 % 0.00 in 91 W/m2
14:22 59.7 °F 50.3 °F 30.11 in NW 6.0 mph 10.0 mph 71 % 0.00 in 109 W/m2
14:27 59.7 °F 50.7 °F 30.11 in NW 5.0 mph 10.0 mph 72 % 0.00 in 144 W/m2
14:32 59.7 °F 51.0 °F 30.10 in NW 3.0 mph 7.0 mph 73 % 0.00 in 151 W/m2
14:37 59.7 °F 50.7 °F 30.11 in NW 4.0 mph 8.0 mph 72 % 0.00 in 174 W/m2
14:42 59.7 °F 50.7 °F 30.10 in NW 4.0 mph 8.0 mph 72 % 0.00 in 381 W/m2
14:47 60.3 °F 51.2 °F 30.10 in NW 2.0 mph 7.0 mph 72 % 0.00 in 638 W/m2
14:52 60.8 °F 51.3 °F 30.10 in WNW 2.0 mph 8.0 mph 71 % 0.00 in 279 W/m2
14:57 61.5 °F 51.3 °F 30.10 in WNW 4.0 mph 9.0 mph 69 % 0.00 in 547 W/m2
15:02 62.2 °F 51.5 °F 30.10 in WNW 7.0 mph 12.0 mph 68 % 0.00 in 464 W/m2
15:07 62.8 °F 51.7 °F 30.10 in NW 7.0 mph 12.0 mph 67 % 0.00 in 432 W/m2
15:12 63.1 °F 51.2 °F 30.10 in WNW 6.0 mph 12.0 mph 65 % 0.00 in 422 W/m2
15:17 63.3 °F 51.3 °F 30.09 in WNW 6.0 mph 12.0 mph 65 % 0.00 in 418 W/m2
15:22 63.7 °F 51.7 °F 30.09 in WNW 6.0 mph 10.0 mph 65 % 0.00 in 413 W/m2
15:27 63.7 °F 51.3 °F 30.09 in WNW 7.0 mph 11.0 mph 64 % 0.00 in 397 W/m2
15:32 63.7 °F 51.3 °F 30.10 in WNW 7.0 mph 13.0 mph 64 % 0.00 in 438 W/m2
15:37 63.9 °F 51.9 °F 30.10 in NW 6.0 mph 13.0 mph 65 % 0.00 in 461 W/m2
15:42 64.0 °F 51.2 °F 30.10 in NW 6.0 mph 10.0 mph 63 % 0.00 in 125 W/m2
15:47 63.7 °F 50.8 °F 30.10 in WNW 8.0 mph 15.0 mph 63 % 0.00 in 97 W/m2
15:52 63.1 °F 50.8 °F 30.10 in WNW 8.0 mph 15.0 mph 64 % 0.00 in 179 W/m2
15:57 63.0 °F 51.0 °F 30.10 in WNW 7.0 mph 13.0 mph 65 % 0.00 in 125 W/m2
16:02 62.6 °F 51.1 °F 30.10 in WNW 7.0 mph 13.0 mph 66 % 0.00 in 97 W/m2
16:07 62.2 °F 50.7 °F 30.10 in WNW 7.0 mph 13.0 mph 66 % 0.00 in 95 W/m2
16:17 61.9 °F 50.8 °F 30.09 in WNW 6.0 mph 12.0 mph 67 % 0.00 in 102 W/m2
16:22 61.7 °F 51.0 °F 30.09 in WNW 5.0 mph 10.0 mph 68 % 0.00 in 269 W/m2
16:27 61.7 °F 51.0 °F 30.09 in WNW 6.0 mph 11.0 mph 68 % 0.00 in 149 W/m2
16:32 61.9 °F 51.2 °F 30.10 in WNW 6.0 mph 10.0 mph 68 % 0.00 in 167 W/m2
16:37 61.9 °F 51.2 °F 30.09 in WNW 7.0 mph 12.0 mph 68 % 0.00 in 169 W/m2
16:42 61.7 °F 50.6 °F 30.09 in WNW 8.0 mph 14.0 mph 67 % 0.00 in 93 W/m2
16:47 61.3 °F 50.3 °F 30.10 in WNW 9.0 mph 14.0 mph 67 % 0.00 in 91 W/m2
16:52 61.2 °F 50.5 °F 30.10 in WNW 9.0 mph 15.0 mph 68 % 0.00 in 90 W/m2
16:57 60.8 °F 50.6 °F 30.10 in WNW 8.0 mph 15.0 mph 69 % 0.00 in 86 W/m2
17:02 60.4 °F 50.6 °F 30.10 in WNW 8.0 mph 13.0 mph 70 % 0.00 in 81 W/m2
17:07 60.3 °F 50.8 °F 30.10 in WNW 7.0 mph 13.0 mph 71 % 0.00 in 160 W/m2
17:12 60.3 °F 50.8 °F 30.09 in WNW 6.0 mph 11.0 mph 71 % 0.00 in 69 W/m2
17:17 60.1 °F 50.6 °F 30.10 in WNW 6.0 mph 11.0 mph 71 % 0.00 in 74 W/m2
17:22 60.1 °F 51.0 °F 30.10 in WNW 6.0 mph 11.0 mph 72 % 0.00 in 81 W/m2
17:28 60.1 °F 51.0 °F 30.10 in WNW 5.0 mph 10.0 mph 72 % 0.00 in 93 W/m2
17:33 60.1 °F 51.0 °F 30.10 in WNW 6.0 mph 12.0 mph 72 % 0.00 in 81 W/m2
17:38 59.9 °F 50.8 °F 30.10 in WNW 7.0 mph 12.0 mph 72 % 0.00 in 60 W/m2
17:43 59.7 °F 50.7 °F 30.10 in WNW 6.0 mph 11.0 mph 72 % 0.00 in 49 W/m2
17:48 59.7 °F 51.0 °F 30.10 in WNW 5.0 mph 9.0 mph 73 % 0.00 in 42 W/m2
17:53 59.5 °F 50.9 °F 30.10 in WNW 4.0 mph 9.0 mph 73 % 0.00 in 32 W/m2
17:58 59.4 °F 51.1 °F 30.11 in WNW 3.0 mph 9.0 mph 74 % 0.00 in 23 W/m2
18:03 59.2 °F 51.3 °F 30.11 in WNW 2.0 mph 6.0 mph 75 % 0.00 in 21 W/m2
18:08 59.0 °F 51.1 °F 30.11 in WNW 2.0 mph 5.0 mph 75 % 0.00 in 19 W/m2
18:13 58.8 °F 51.3 °F 30.11 in WNW 1.0 mph 5.0 mph 76 % 0.00 in 16 W/m2
18:18 58.5 °F 51.3 °F 30.11 in WNW 1.0 mph 5.0 mph 77 % 0.00 in 12 W/m2
18:23 58.3 °F 51.4 °F 30.11 in WNW 1.0 mph 5.0 mph 78 % 0.00 in 7 W/m2
18:28 57.9 °F 51.1 °F 30.12 in WNW 2.0 mph 6.0 mph 78 % 0.00 in 5 W/m2
18:33 57.7 °F 51.3 °F 30.12 in WNW 5.0 mph 9.0 mph 79 % 0.00 in 0 W/m2
18:38 57.4 °F 50.9 °F 30.12 in WNW 5.0 mph 9.0 mph 79 % 0.00 in 0 W/m2
18:43 57.0 °F 50.9 °F 30.12 in WNW 4.0 mph 7.0 mph 80 % 0.00 in 0 W/m2
18:48 56.8 °F 50.7 °F 30.12 in WNW 4.0 mph 7.0 mph 80 % 0.00 in 0 W/m2
18:49 56.8 °F 50.7 °F 30.12 in WNW 4.0 mph 7.0 mph 80 % 0.00 in 0 W/m2
18:54 56.5 °F 50.7 °F 30.12 in WNW 3.0 mph 6.0 mph 81 % 0.00 in 0 W/m2
18:59 56.1 °F 50.4 °F 30.12 in WNW 2.0 mph 5.0 mph 81 % 0.00 in 0 W/m2
19:04 55.9 °F 50.5 °F 30.12 in WNW 2.0 mph 5.0 mph 82 % 0.00 in 0 W/m2
19:09 55.6 °F 50.2 °F 30.12 in WNW 2.0 mph 4.0 mph 82 % 0.00 in 0 W/m2
19:19 55.0 °F 50.0 °F 30.13 in WNW 3.0 mph 5.0 mph 83 % 0.00 in 0 W/m2
19:24 54.7 °F 49.9 °F 30.13 in WNW 3.0 mph 6.0 mph 84 % 0.00 in 0 W/m2
19:29 54.3 °F 49.6 °F 30.13 in WNW 3.0 mph 6.0 mph 84 % 0.00 in 0 W/m2
19:34 54.1 °F 49.7 °F 30.13 in WNW 2.0 mph 5.0 mph 85 % 0.00 in 0 W/m2
19:39 54.0 °F 49.6 °F 30.13 in WNW 1.0 mph 5.0 mph 85 % 0.00 in 0 W/m2
19:44 53.6 °F 49.5 °F 30.13 in WNW 1.0 mph 3.0 mph 86 % 0.00 in 0 W/m2
19:49 53.4 °F 49.0 °F 30.13 in Calm     85 % 0.00 in 0 W/m2
19:54 53.2 °F 49.2 °F 30.13 in Calm   2.0 mph 86 % 0.00 in 0 W/m2
19:59 52.9 °F 48.8 °F 30.13 in Calm   2.0 mph 86 % 0.00 in 0 W/m2
20:04 52.5 °F 48.5 °F 30.13 in Calm   2.0 mph 86 % 0.00 in 0 W/m2
20:09 52.3 °F 48.3 °F 30.13 in Calm   2.0 mph 86 % 0.00 in 0 W/m2
20:14 52.2 °F 48.4 °F 30.13 in Calm   1.0 mph 87 % 0.00 in 0 W/m2
20:24 51.6 °F 47.9 °F 30.13 in Calm     87 % 0.00 in 0 W/m2
20:29 51.4 °F 47.7 °F 30.13 in Calm     87 % 0.00 in 0 W/m2
20:34 51.3 °F 47.8 °F 30.13 in Calm     88 % 0.00 in 0 W/m2
20:39 51.1 °F 47.6 °F 30.12 in Calm     88 % 0.00 in 0 W/m2
20:44 50.7 °F 47.3 °F 30.13 in Calm   1.0 mph 88 % 0.00 in 0 W/m2
20:49 50.5 °F 47.4 °F 30.13 in Calm   1.0 mph 89 % 0.00 in 0 W/m2
20:54 50.4 °F 47.2 °F 30.13 in Calm   1.0 mph 89 % 0.00 in 0 W/m2
20:55 50.4 °F 47.2 °F 30.13 in Calm   1.0 mph 89 % 0.00 in 0 W/m2
21:00 50.2 °F 47.1 °F 30.13 in Calm   1.0 mph 89 % 0.00 in 0 W/m2
21:05 49.8 °F 47.0 °F 30.13 in Calm     90 % 0.00 in 0 W/m2
21:06 49.8 °F 47.0 °F 30.13 in Calm     90 % 0.00 in 0 W/m2
21:11 49.6 °F 46.8 °F 30.13 in Calm     90 % 0.00 in 0 W/m2
21:16 49.6 °F 46.8 °F 30.13 in Calm   1.0 mph 90 % 0.00 in 0 W/m2
21:21 49.5 °F 46.9 °F 30.13 in Calm   1.0 mph 91 % 0.00 in 0 W/m2
21:31 49.3 °F 46.8 °F 30.13 in Calm   1.0 mph 91 % 0.00 in 0 W/m2
21:36 49.3 °F 46.8 °F 30.12 in Calm     91 % 0.00 in 0 W/m2
21:41 49.1 °F 46.6 °F 30.12 in Calm   1.0 mph 91 % 0.00 in 0 W/m2
21:46 49.3 °F 47.1 °F 30.12 in Calm   1.0 mph 92 % 0.00 in 0 W/m2
21:51 49.3 °F 47.1 °F 30.13 in Calm     92 % 0.00 in 0 W/m2
21:56 49.3 °F 47.1 °F 30.12 in Calm     92 % 0.00 in 0 W/m2
22:01 49.3 °F 47.1 °F 30.12 in Calm     92 % 0.00 in 0 W/m2
22:06 49.3 °F 47.3 °F 30.12 in Calm     93 % 0.00 in 0 W/m2
22:21 49.1 °F 47.2 °F 30.12 in Calm     93 % 0.00 in 0 W/m2
22:26 49.1 °F 47.2 °F 30.12 in Calm     93 % 0.00 in 0 W/m2
22:32 49.1 °F 47.2 °F 30.12 in Calm     93 % 0.00 in 0 W/m2
22:37 48.9 °F 47.0 °F 30.12 in Calm     93 % 0.00 in 0 W/m2
22:42 48.9 °F 47.0 °F 30.12 in Calm     93 % 0.00 in 0 W/m2
22:47 48.7 °F 46.8 °F 30.12 in Calm     93 % 0.00 in 0 W/m2
22:52 48.7 °F 46.8 °F 30.12 in Calm     93 % 0.00 in 0 W/m2
22:57 48.6 °F 46.6 °F 30.12 in Calm     93 % 0.00 in 0 W/m2
23:02 48.7 °F 46.8 °F 30.12 in Calm   2.0 mph 93 % 0.00 in 0 W/m2
23:07 48.9 °F 47.3 °F 30.12 in WNW 2.0 mph 7.0 mph 94 % 0.00 in 0 W/m2
23:12 49.5 °F 47.8 °F 30.12 in WNW 2.0 mph 7.0 mph 94 % 0.00 in 0 W/m2
23:17 49.6 °F 48.0 °F 30.12 in Calm   4.0 mph 94 % 0.00 in 0 W/m2
23:22 49.6 °F 48.0 °F 30.11 in Calm     94 % 0.00 in 0 W/m2
23:27 49.6 °F 48.0 °F 30.12 in Calm     94 % 0.00 in 0 W/m2
23:32 49.6 °F 48.0 °F 30.11 in WNW 2.0 mph 5.0 mph 94 % 0.00 in 0 W/m2
23:37 49.8 °F 48.2 °F 30.11 in WNW 4.0 mph 6.0 mph 94 % 0.00 in 0 W/m2
23:42 50.2 °F 48.8 °F 30.11 in WNW 3.0 mph 6.0 mph 95 % 0.00 in 0 W/m2
23:47 50.4 °F 48.7 °F 30.11 in NW 1.0 mph 5.0 mph 94 % 0.00 in 0 W/m2
23:52 50.4 °F 48.7 °F 30.11 in Calm   1.0 mph 94 % 0.00 in 0 W/m2
23:57 50.2 °F 48.5 °F 30.11 in Calm   4.0 mph 94 % 0.00 in 0 W/m2
Delerius-Weather
Compliments of Weather Underground - 2.25 mb

Data updates at regular intervals.